Alloy, WV

1:30 PM EDT on September 16, 2014 (GMT -0400)
KWVGLENF2 | Change Station
CLOSE
Current Station
Personal Weather Station
Location: Glen Ferris, WV
Elevation: 676 ft
Nearby Weather Stations

Elev 676 ft 38.15 °N, 81.22 °W | Updated 27 minutes ago

Overcast
Overcast
65.7 °F
Feels Like 65.7 °F
N
0.0
Wind Variable Wind from NW
Gusts 0.0 mph

Today
High -- | Low -- °F
--% Chance of Precip.
Yesterday
High -- | Low -- °F
Precip. -- in
7:07 AM 7:31 PM
Last Quarter, 44% visible
Pressure 30.09 in
Visibility 10.0 miles
Clouds Mostly Cloudy 1100 ft
Mostly Cloudy 2600 ft
Overcast 4000 ft
Dew Point 60 °F
Humidity 82%
Rainfall 0.01 in
Snow Depth Not available.
UV 3 out of 12
Pollen 3.50 out of 12
Air Quality Not available.
Flu Activity Not available.
METAR KCRW 161654Z 03005KT 10SM BKN011 BKN026 OVC040 17/14 A3011 RMK AO2 SLP190 BKN011 V SCT T01720139

More Conditions Fewer Conditions

Pressure 30.09 in
Visibility 10.0 miles
Clouds Mostly Cloudy 1100 ft
Mostly Cloudy 2600 ft
Overcast 4000 ft
Dew Point 60 °F
Humidity 82%
Rainfall 0.01 in
Snow Depth Not available.
UV 3 out of 12
Pollen 3.50 out of 12
Air Quality Not available.
Flu Activity Not available.
METAR KCRW 161654Z 03005KT 10SM BKN011 BKN026 OVC040 17/14 A3011 RMK AO2 SLP190 BKN011 V SCT T01720139

More Conditions Fewer Conditions

10-Day Weather Forecast

Almanac

Astronomy

Sep. 16, 2014 Rise Set
Actual Time 7:07 AM EDT 7:31 PM EDT
Civil Twilight 6:41 AM EDT 7:58 PM EDT
Nautical Twilight 6:10 AM EDT 8:29 PM EDT
Astronomical Twilight 5:38 AM EDT 9:00 PM EDT
Moon 12:20 AM EDT 2:50 PM EDT
Length of Visible Light 13h 16m
Length of Day
12h 23m
Tomorrow will be 2m 27s shorter.
Last Quarter, 44% of the Moon is Illuminated
Today
Last Quarter
Sep 24
New
Oct 1
First Quarter
Oct 8
Full
Oct 15
Last Quarter

Today's Extremes

State Highs State Lows

Community

WunderPhotos

Upload Photos

1,753,838 photos uploaded!

Nearby

Snow Depth

Station Depth Elevation
No new snow has been reported.

Earthquake Activity

City Distance Mag. Time & Date
No recent earthquake activity has been reported nearby.
Minimum magnitude displayed is 2.5.

Coastal Water Temperatures

Place Temperature
No Stations Reporting

Nearby Weather Stations